createdAt,value
2022-12-15T00:02:22.867Z,22.63
2022-12-15T00:05:08.954Z,23.53
2022-12-15T00:07:54.305Z,24.10
2022-12-15T00:10:39.585Z,23.20
2022-12-15T00:13:32.659Z,24.30
2022-12-15T00:16:18.734Z,23.07
2022-12-15T00:19:04.213Z,23.67
2022-12-15T00:21:50.105Z,23.57
2022-12-15T00:24:35.493Z,23.47
2022-12-15T00:27:20.887Z,22.80
2022-12-15T00:30:06.388Z,22.70
2022-12-15T00:32:51.608Z,23.70
2022-12-15T00:35:37.089Z,23.27
2022-12-15T00:38:27.775Z,22.87
2022-12-15T00:40:59.395Z,25.27
2022-12-15T00:43:32.724Z,23.27
2022-12-15T00:46:19.366Z,23.50
2022-12-15T00:48:46.936Z,25.47
2022-12-15T00:51:14.519Z,26.43
2022-12-15T00:54:00.326Z,23.97
2022-12-15T00:56:46.112Z,23.80
2022-12-15T00:59:33.527Z,25.10
2022-12-15T01:02:19.894Z,23.13
2022-12-15T01:05:06.066Z,21.50
2022-12-15T01:07:51.897Z,23.00
2022-12-15T01:10:37.903Z,23.40
2022-12-15T01:13:24.275Z,23.40
2022-12-15T01:16:09.808Z,22.70
2022-12-15T01:18:55.228Z,23.10
2022-12-15T01:21:25.069Z,22.73
2022-12-15T01:23:52.958Z,23.17
2022-12-15T01:26:20.012Z,22.73
2022-12-15T01:28:46.773Z,22.67
2022-12-15T01:31:14.329Z,23.10
2022-12-15T01:33:42.691Z,23.57
2022-12-15T01:36:10.504Z,23.93
2022-12-15T01:38:37.618Z,24.07
2022-12-15T01:41:09.124Z,24.03
2022-12-15T01:43:39.087Z,24.10
2022-12-15T01:46:07.406Z,24.17
2022-12-15T01:48:57.249Z,25.43
2022-12-15T01:51:34.628Z,23.03
2022-12-15T01:54:17.445Z,25.27
2022-12-15T01:56:50.410Z,23.33
2022-12-15T01:59:23.526Z,23.23
2022-12-15T02:01:50.637Z,22.07
2022-12-15T02:04:21.699Z,23.80
2022-12-15T02:06:48.582Z,24.63
2022-12-15T02:09:17.599Z,24.17
2022-12-15T02:12:22.496Z,23.57
2022-12-15T02:15:32.713Z,24.27
2022-12-15T02:18:13.634Z,23.63
2022-12-15T02:21:10.015Z,23.30
2022-12-15T02:23:55.585Z,25.00
2022-12-15T02:27:16.102Z,24.33
2022-12-15T02:30:26.289Z,23.70
2022-12-15T02:33:07.981Z,22.90
2022-12-15T02:35:58.152Z,22.93
2022-12-15T02:38:33.625Z,21.60
2022-12-15T02:41:03.322Z,21.10
2022-12-15T02:43:34.562Z,21.77
2022-12-15T02:46:24.401Z,20.70
2022-12-15T02:49:24.883Z,22.43
2022-12-15T02:52:16.294Z,22.40
2022-12-15T02:55:10.258Z,23.03
2022-12-15T02:57:39.781Z,23.07
2022-12-15T03:00:11.433Z,23.20
2022-12-15T03:02:45.936Z,23.17
2022-12-15T03:05:14.195Z,22.83
2022-12-15T03:07:42.742Z,22.70
2022-12-15T03:10:12.906Z,22.77
2022-12-15T03:12:40.083Z,22.97
2022-12-15T03:15:07.671Z,23.73
2022-12-15T03:17:34.519Z,22.90
2022-12-15T03:20:01.284Z,22.93
2022-12-15T03:22:28.149Z,22.83
2022-12-15T03:24:54.945Z,24.13
2022-12-15T03:27:22.117Z,23.27
2022-12-15T03:29:48.908Z,22.30
2022-12-15T03:32:15.759Z,22.57
2022-12-15T03:34:42.536Z,21.93
2022-12-15T03:37:09.473Z,23.60
2022-12-15T03:39:36.253Z,23.87
2022-12-15T03:42:03.012Z,23.40
2022-12-15T03:44:29.777Z,22.13
2022-12-15T03:47:02.756Z,23.17
2022-12-15T03:49:29.854Z,22.20
2022-12-15T03:51:56.617Z,23.50
2022-12-15T03:54:23.363Z,23.00
2022-12-15T03:56:50.149Z,23.77
2022-12-15T03:59:16.985Z,23.60
2022-12-15T04:01:49.052Z,23.67
2022-12-15T04:04:16.030Z,23.97
2022-12-15T04:06:42.848Z,23.13
2022-12-15T04:09:09.697Z,24.17
2022-12-15T04:11:36.489Z,23.67
2022-12-15T04:14:03.330Z,24.87
2022-12-15T04:16:30.180Z,23.90
2022-12-15T04:19:15.702Z,25.03
2022-12-15T04:21:42.508Z,24.43
2022-12-15T04:24:27.871Z,24.10
2022-12-15T04:27:13.377Z,23.90
2022-12-15T04:29:58.744Z,24.03
2022-12-15T04:32:44.213Z,25.40
2022-12-15T04:35:35.675Z,23.87
2022-12-15T04:38:20.970Z,23.27
2022-12-15T04:41:06.232Z,24.27
2022-12-15T04:43:51.549Z,24.37
2022-12-15T04:46:36.854Z,25.60
2022-12-15T04:49:22.273Z,24.10
2022-12-15T04:52:07.594Z,23.50
2022-12-15T04:54:53.066Z,23.47
2022-12-15T04:57:38.398Z,22.83
2022-12-15T05:00:24.838Z,22.43
2022-12-15T05:03:15.026Z,22.33
2022-12-15T05:06:03.308Z,22.03
2022-12-15T05:08:50.018Z,24.13
2022-12-15T05:11:35.695Z,23.53
2022-12-15T05:14:21.294Z,23.23
2022-12-15T05:17:06.532Z,25.17
2022-12-15T05:19:51.955Z,22.97
2022-12-15T05:22:37.308Z,23.43
2022-12-15T05:25:23.396Z,24.03
2022-12-15T05:28:08.793Z,21.73
2022-12-15T05:30:54.211Z,23.57
2022-12-15T05:33:21.061Z,23.40
2022-12-15T05:35:47.861Z,23.30
2022-12-15T05:38:14.738Z,24.53
2022-12-15T05:40:41.583Z,24.07
2022-12-15T05:43:08.419Z,22.73
2022-12-15T05:45:35.245Z,23.30
2022-12-15T05:48:02.088Z,23.53
2022-12-15T05:50:28.912Z,24.17
2022-12-15T05:52:58.568Z,23.53
2022-12-15T05:55:25.524Z,23.10
2022-12-15T05:57:53.871Z,22.97
2022-12-15T06:00:21.887Z,23.80
2022-12-15T06:02:49.788Z,24.50
2022-12-15T06:05:17.634Z,24.20
2022-12-15T06:07:44.479Z,23.03
2022-12-15T06:10:11.661Z,22.97
2022-12-15T06:12:38.574Z,22.33
2022-12-15T06:15:06.281Z,23.23
2022-12-15T06:17:33.234Z,23.93
2022-12-15T06:20:00.087Z,25.00
2022-12-15T06:22:29.706Z,24.10
2022-12-15T06:24:56.699Z,23.30
2022-12-15T06:27:23.445Z,23.97
2022-12-15T06:29:50.207Z,23.33
2022-12-15T06:32:17.035Z,24.47
2022-12-15T06:34:43.882Z,22.23
2022-12-15T06:37:10.678Z,25.00
2022-12-15T06:39:37.516Z,23.57
2022-12-15T06:42:04.444Z,23.40
2022-12-15T06:44:31.276Z,24.60
2022-12-15T06:46:58.108Z,24.57
2022-12-15T06:49:24.975Z,24.93
2022-12-15T06:51:51.740Z,25.63
2022-12-15T06:54:18.871Z,24.20
2022-12-15T06:56:45.662Z,24.57
2022-12-15T06:59:16.733Z,24.57
2022-12-15T07:01:43.698Z,24.47
2022-12-15T07:04:11.202Z,24.83
2022-12-15T07:06:39.291Z,26.37
2022-12-15T07:09:10.656Z,26.93
2022-12-15T07:11:37.542Z,27.27
2022-12-15T07:14:04.732Z,27.23
2022-12-15T07:16:31.638Z,25.10
2022-12-15T07:18:58.495Z,27.07
2022-12-15T07:21:25.302Z,26.30
2022-12-15T07:23:55.197Z,27.07
2022-12-15T07:26:24.189Z,27.10
2022-12-15T07:28:51.097Z,25.60
2022-12-15T07:31:18.194Z,27.60
2022-12-15T07:33:45.177Z,26.60
2022-12-15T07:36:12.266Z,27.03
2022-12-15T07:38:39.040Z,26.63
2022-12-15T07:41:07.907Z,27.17
2022-12-15T07:43:36.031Z,26.97
2022-12-15T07:46:05.139Z,27.77
2022-12-15T07:48:33.048Z,27.70
2022-12-15T07:51:10.984Z,27.73
2022-12-15T07:53:39.879Z,26.77
2022-12-15T07:56:09.422Z,27.03
2022-12-15T07:58:37.761Z,28.60
2022-12-15T08:01:08.102Z,26.13
2022-12-15T08:03:36.459Z,26.10
2022-12-15T08:06:10.169Z,26.63
2022-12-15T08:08:37.591Z,27.33
2022-12-15T08:11:10.219Z,28.57
2022-12-15T08:14:02.131Z,27.97
2022-12-15T08:16:26.090Z,26.73
2022-12-15T08:18:53.693Z,26.80
2022-12-15T08:21:20.486Z,26.00
2022-12-15T08:23:47.783Z,27.37
2022-12-15T08:26:17.152Z,27.00
2022-12-15T08:28:45.755Z,26.83
2022-12-15T08:31:16.772Z,28.00
2022-12-15T08:33:45.013Z,27.27
2022-12-15T08:36:15.232Z,29.10
2022-12-15T08:38:43.584Z,28.50
2022-12-15T08:41:21.191Z,28.60
2022-12-15T08:43:49.547Z,30.20
2022-12-15T08:46:23.386Z,29.83
2022-12-15T08:48:50.757Z,27.73
2022-12-15T08:51:18.077Z,39.47
2022-12-15T08:53:46.117Z,27.47
2022-12-15T08:56:19.417Z,26.03
2022-12-15T08:58:48.345Z,28.80
2022-12-15T09:01:23.720Z,28.67
2022-12-15T09:03:53.668Z,34.57
2022-12-15T09:06:29.698Z,33.70
2022-12-15T09:08:58.461Z,40.37
2022-12-15T09:11:27.116Z,35.80
2022-12-15T09:13:54.379Z,37.37
2022-12-15T09:16:22.287Z,36.47
2022-12-15T09:18:52.692Z,34.67
2022-12-15T09:21:23.029Z,32.80
2022-12-15T09:23:51.970Z,30.43
2022-12-15T09:26:21.442Z,28.50
2022-12-15T09:28:50.489Z,26.00
2022-12-15T09:31:24.385Z,28.17
2022-12-15T09:33:53.491Z,30.40
2022-12-15T09:36:20.458Z,27.53
2022-12-15T09:38:47.329Z,28.87
2022-12-15T09:41:14.711Z,29.70
2022-12-15T09:44:15.084Z,28.90
2022-12-15T09:47:14.161Z,30.67
2022-12-15T09:49:55.540Z,49.07
2022-12-15T09:52:48.877Z,43.90
2022-12-15T09:55:23.641Z,36.47
2022-12-15T09:57:50.375Z,33.00
2022-12-15T10:00:25.886Z,29.10
2022-12-15T10:03:04.700Z,30.50
2022-12-15T10:06:17.320Z,30.70
2022-12-15T10:08:55.328Z,28.63
2022-12-15T10:11:55.077Z,29.30
2022-12-15T10:14:26.656Z,29.43
2022-12-15T10:17:01.162Z,28.67
2022-12-15T10:19:45.408Z,27.60
2022-12-15T10:22:32.524Z,28.87
2022-12-15T10:25:15.669Z,28.77
2022-12-15T10:27:59.711Z,29.13
2022-12-15T10:30:26.625Z,29.33
2022-12-15T10:33:28.185Z,28.93
2022-12-15T10:35:56.198Z,27.60
2022-12-15T10:38:30.949Z,27.60
2022-12-15T10:41:04.967Z,28.33
2022-12-15T10:43:40.404Z,32.13
2022-12-15T10:46:26.333Z,35.27
2022-12-15T10:49:16.324Z,36.37
2022-12-15T10:51:47.341Z,31.43
2022-12-15T10:54:16.340Z,31.73
2022-12-15T10:56:55.522Z,28.57
2022-12-15T10:59:35.891Z,27.87
2022-12-15T11:02:24.003Z,30.33
2022-12-15T11:05:16.350Z,31.07
2022-12-15T11:07:53.709Z,31.07
2022-12-15T11:10:27.273Z,39.13
2022-12-15T11:13:14.188Z,34.13
2022-12-15T11:15:50.873Z,34.00
2022-12-15T11:19:00.940Z,34.53
2022-12-15T11:21:39.754Z,33.07
2022-12-15T11:24:21.717Z,31.50
2022-12-15T11:27:27.149Z,32.70
2022-12-15T11:30:18.505Z,31.57
2022-12-15T11:32:53.524Z,30.47
2022-12-15T11:35:46.343Z,30.27
2022-12-15T11:38:59.028Z,32.83
2022-12-15T11:42:03.825Z,30.63
2022-12-15T11:44:39.718Z,36.00
2022-12-15T11:47:21.680Z,33.50
2022-12-15T11:49:53.101Z,35.13
2022-12-15T11:52:45.431Z,36.47
2022-12-15T11:56:01.713Z,32.23
2022-12-15T11:58:48.913Z,31.30
2022-12-15T12:01:49.536Z,30.90
2022-12-15T12:04:43.275Z,29.33
2022-12-15T12:07:41.802Z,28.70
2022-12-15T12:10:42.838Z,29.10
2022-12-15T12:13:33.817Z,27.93
2022-12-15T12:16:35.263Z,28.10
2022-12-15T12:19:09.393Z,29.30
2022-12-15T12:21:50.785Z,30.17
2022-12-15T12:24:31.681Z,27.57
2022-12-15T12:27:35.707Z,29.03
2022-12-15T12:30:12.676Z,28.80
2022-12-15T12:32:50.505Z,28.53
2022-12-15T12:35:51.656Z,29.50
2022-12-15T12:38:25.124Z,28.67
2022-12-15T12:41:07.762Z,28.17
2022-12-15T12:43:37.094Z,28.33
2022-12-15T12:46:21.970Z,31.20
2022-12-15T12:48:59.326Z,30.17
2022-12-15T12:51:40.572Z,30.23
2022-12-15T12:54:36.514Z,33.27
2022-12-15T12:57:30.391Z,31.47
2022-12-15T13:00:07.628Z,28.87
2022-12-15T13:02:40.234Z,29.50
2022-12-15T13:05:43.640Z,29.13
2022-12-15T13:08:10.384Z,28.53
2022-12-15T13:10:47.247Z,28.40
2022-12-15T13:13:32.745Z,30.77
2022-12-15T13:16:13.132Z,27.37
2022-12-15T13:19:06.835Z,27.67
2022-12-15T13:21:45.470Z,26.90
2022-12-15T13:24:35.888Z,27.47
2022-12-15T13:27:11.581Z,26.20
2022-12-15T13:30:03.640Z,25.70
2022-12-15T13:32:37.668Z,26.10
2022-12-15T13:35:13.489Z,25.07
2022-12-15T13:37:57.208Z,26.43
2022-12-15T13:40:35.893Z,27.47
2022-12-15T13:43:05.558Z,27.60
2022-12-15T13:45:48.888Z,27.40
2022-12-15T13:48:53.302Z,28.40
2022-12-15T13:51:33.580Z,27.10
2022-12-15T13:54:08.091Z,28.23
2022-12-15T13:57:04.496Z,27.23
2022-12-15T13:59:44.808Z,28.10
2022-12-15T14:02:34.815Z,28.53
2022-12-15T14:05:12.146Z,27.90
2022-12-15T14:07:49.556Z,27.97
2022-12-15T14:10:37.333Z,28.40
2022-12-15T14:13:32.149Z,27.63
2022-12-15T14:16:07.724Z,28.80
2022-12-15T14:18:38.875Z,27.30
2022-12-15T14:21:20.026Z,28.63
2022-12-15T14:24:11.322Z,27.67
2022-12-15T14:26:33.823Z,28.17
2022-12-15T14:29:05.015Z,29.83
2022-12-15T14:31:32.242Z,28.63
2022-12-15T14:34:21.340Z,28.60
2022-12-15T14:36:50.366Z,31.20
2022-12-15T14:39:25.480Z,31.63
2022-12-15T14:41:53.828Z,31.53
2022-12-15T14:44:31.380Z,32.03
2022-12-15T14:47:20.769Z,32.90
2022-12-15T14:49:48.814Z,30.20
2022-12-15T14:52:30.293Z,31.50
2022-12-15T14:55:03.443Z,31.63
2022-12-15T14:57:45.826Z,30.53
2022-12-15T15:00:33.939Z,31.10
2022-12-15T15:05:59.266Z,31.93
2022-12-15T15:08:43.717Z,31.83
2022-12-15T15:11:33.762Z,33.13
2022-12-15T15:14:08.265Z,31.67
2022-12-15T15:16:35.183Z,32.03
2022-12-15T15:19:04.442Z,31.33
2022-12-15T15:21:37.124Z,32.17
2022-12-15T15:24:26.805Z,32.10
2022-12-15T15:26:53.779Z,32.73
2022-12-15T15:29:39.480Z,33.03
2022-12-15T15:32:18.457Z,30.57
2022-12-15T15:34:47.239Z,31.23
2022-12-15T15:37:25.435Z,31.90
2022-12-15T15:39:54.653Z,33.20
2022-12-15T15:42:25.428Z,32.50
2022-12-15T15:44:57.133Z,32.57
2022-12-15T15:47:25.775Z,31.23
2022-12-15T15:49:59.069Z,31.13
2022-12-15T15:52:28.470Z,34.13
2022-12-15T15:54:55.325Z,30.30
2022-12-15T15:57:22.439Z,31.57
2022-12-15T15:59:49.258Z,32.23
2022-12-15T16:02:16.203Z,33.43
2022-12-15T16:04:44.518Z,32.90
2022-12-15T16:07:23.222Z,33.07
2022-12-15T16:09:50.767Z,32.50
2022-12-15T16:12:29.603Z,33.50
2022-12-15T16:14:56.458Z,32.47
2022-12-15T16:17:23.560Z,31.27
2022-12-15T16:19:50.366Z,32.17
2022-12-15T16:22:22.307Z,31.80
2022-12-15T16:24:49.289Z,34.37
2022-12-15T16:27:16.572Z,33.17
2022-12-15T16:29:44.315Z,33.77
2022-12-15T16:32:14.742Z,33.33
2022-12-15T16:34:41.877Z,33.17
2022-12-15T16:37:28.376Z,33.90
2022-12-15T16:39:55.236Z,33.37
2022-12-15T16:42:22.142Z,32.13
2022-12-15T16:44:48.922Z,33.20
2022-12-15T16:47:16.034Z,33.30
2022-12-15T16:49:42.836Z,32.93
2022-12-15T16:52:20.134Z,33.83
2022-12-15T16:54:48.950Z,33.60
2022-12-15T16:57:15.975Z,33.10
2022-12-15T16:59:42.803Z,33.40
2022-12-15T17:02:29.550Z,34.57
2022-12-15T17:04:56.637Z,35.63
2022-12-15T17:07:26.088Z,35.53
2022-12-15T17:09:52.927Z,33.87
2022-12-15T17:12:19.913Z,35.60
2022-12-15T17:14:46.786Z,35.40
2022-12-15T17:17:19.417Z,33.20
2022-12-15T17:20:19.956Z,33.60
2022-12-15T17:22:33.828Z,36.60
2022-12-15T17:25:00.717Z,32.60
2022-12-15T17:27:29.347Z,35.10
2022-12-15T17:29:59.026Z,35.07
2022-12-15T17:32:25.889Z,35.13
2022-12-15T17:34:52.709Z,35.87
2022-12-15T17:37:19.603Z,34.60
2022-12-15T17:39:50.988Z,33.53
2022-12-15T17:42:20.291Z,34.93
2022-12-15T17:44:48.662Z,34.47
2022-12-15T17:47:16.635Z,33.43
2022-12-15T17:49:44.035Z,34.17
2022-12-15T17:52:31.372Z,33.50
2022-12-15T17:54:58.308Z,34.63
2022-12-15T17:57:25.645Z,32.67
2022-12-15T17:59:52.767Z,33.90
2022-12-15T18:02:19.707Z,33.73
2022-12-15T18:04:46.711Z,34.00
2022-12-15T18:07:31.832Z,31.77
2022-12-15T18:09:58.622Z,33.73
2022-12-15T18:12:27.639Z,32.33
2022-12-15T18:14:55.976Z,34.93
2022-12-15T18:17:23.535Z,34.37
2022-12-15T18:19:50.360Z,33.67
2022-12-15T18:22:23.161Z,33.87
2022-12-15T18:24:53.398Z,33.67
2022-12-15T18:27:27.862Z,34.47
2022-12-15T18:29:56.429Z,33.40
2022-12-15T18:32:26.284Z,35.10
2022-12-15T18:34:54.111Z,35.93
2022-12-15T18:37:24.623Z,33.40
2022-12-15T18:39:51.622Z,35.03
2022-12-15T18:42:21.557Z,35.53
2022-12-15T18:44:51.237Z,35.50
2022-12-15T18:47:21.384Z,35.23
2022-12-15T18:49:48.483Z,35.83
2022-12-15T18:52:23.822Z,34.97
2022-12-15T18:54:53.841Z,34.77
2022-12-15T18:57:35.918Z,35.07
2022-12-15T19:00:14.674Z,34.87
2022-12-15T19:02:44.690Z,35.50
2022-12-15T19:05:27.484Z,34.07
2022-12-15T19:08:13.206Z,35.83
2022-12-15T19:10:54.835Z,33.77
2022-12-15T19:13:26.325Z,34.20
2022-12-15T19:15:53.429Z,34.33
2022-12-15T19:18:42.154Z,34.60
2022-12-15T19:21:37.233Z,33.83
2022-12-15T19:24:06.534Z,34.33
2022-12-15T19:26:33.575Z,34.97
2022-12-15T19:29:00.479Z,36.23
2022-12-15T19:31:27.350Z,33.20
2022-12-15T19:33:54.113Z,33.60
2022-12-15T19:36:24.401Z,35.50
2022-12-15T19:38:54.747Z,32.63
2022-12-15T19:41:21.599Z,35.03
2022-12-15T19:43:48.350Z,35.00
2022-12-15T19:46:20.000Z,35.70
2022-12-15T19:48:48.091Z,34.17
2022-12-15T19:51:24.926Z,34.83
2022-12-15T19:53:51.881Z,34.80
2022-12-15T19:56:21.806Z,36.37
2022-12-15T19:58:49.414Z,35.43
2022-12-15T20:01:19.783Z,35.63
2022-12-15T20:03:49.394Z,36.37
2022-12-15T20:06:20.776Z,37.57
2022-12-15T20:08:51.717Z,35.30
2022-12-15T20:11:19.733Z,35.97
2022-12-15T20:13:48.333Z,33.67
2022-12-15T20:16:18.696Z,36.90
2022-12-15T20:18:50.750Z,33.23
2022-12-15T20:21:22.297Z,37.33
2022-12-15T20:23:57.896Z,37.03
2022-12-15T20:26:25.529Z,37.13
2022-12-15T20:28:53.886Z,38.30
2022-12-15T20:31:23.322Z,35.57
2022-12-15T20:33:50.626Z,36.37
2022-12-15T20:36:22.437Z,35.30
2022-12-15T20:38:49.417Z,36.00
2022-12-15T20:41:22.602Z,35.33
2022-12-15T20:43:50.708Z,37.93
2022-12-15T20:46:24.316Z,35.53
2022-12-15T20:48:54.248Z,35.70
2022-12-15T20:51:28.803Z,37.57
2022-12-15T20:53:58.996Z,36.77
2022-12-15T20:56:27.417Z,37.83
2022-12-15T20:58:57.586Z,35.20
2022-12-15T21:01:35.278Z,36.43
2022-12-15T21:04:19.704Z,35.40
2022-12-15T21:06:49.941Z,34.13
2022-12-15T21:09:22.071Z,33.77
2022-12-15T21:11:49.835Z,34.13
2022-12-15T21:14:21.445Z,36.13
2022-12-15T21:16:50.187Z,37.87
2022-12-15T21:19:21.595Z,32.27
2022-12-15T21:21:55.645Z,31.87
2022-12-15T21:24:27.672Z,31.63
2022-12-15T21:26:55.176Z,33.03
2022-12-15T21:29:25.116Z,31.53
2022-12-15T21:31:51.948Z,29.13
2022-12-15T21:34:18.771Z,31.03
2022-12-15T21:36:51.740Z,29.70
2022-12-15T21:39:34.029Z,29.90
2022-12-15T21:42:06.340Z,30.43
2022-12-15T21:44:33.138Z,28.70
2022-12-15T21:46:59.939Z,33.03
2022-12-15T21:49:27.070Z,30.77
2022-12-15T21:51:57.822Z,31.80
2022-12-15T21:54:33.289Z,29.37
2022-12-15T21:57:00.737Z,30.07
2022-12-15T21:59:30.960Z,29.20
2022-12-15T22:02:00.061Z,29.00
2022-12-15T22:04:32.032Z,30.93
2022-12-15T22:06:59.185Z,30.97
2022-12-15T22:09:25.937Z,29.77
2022-12-15T22:11:55.838Z,31.77
2022-12-15T22:14:27.795Z,28.90
2022-12-15T22:16:55.353Z,30.00
2022-12-15T22:19:23.114Z,30.40
2022-12-15T22:21:50.589Z,29.23
2022-12-15T22:24:19.535Z,29.00
2022-12-15T22:26:47.606Z,30.40
2022-12-15T22:29:24.861Z,28.90
2022-12-15T22:31:52.012Z,30.53
2022-12-15T22:34:25.757Z,30.50
2022-12-15T22:36:53.001Z,29.27
2022-12-15T22:39:21.828Z,30.10
2022-12-15T22:41:51.184Z,29.90
2022-12-15T22:44:25.986Z,30.00
2022-12-15T22:46:55.876Z,30.53
2022-12-15T22:49:29.834Z,29.77
2022-12-15T22:51:56.621Z,29.67
2022-12-15T22:54:30.335Z,30.00
2022-12-15T22:57:08.600Z,28.40
2022-12-15T22:59:48.877Z,29.17
2022-12-15T23:02:15.817Z,29.70
2022-12-15T23:04:42.662Z,29.67
2022-12-15T23:07:12.433Z,30.03
2022-12-15T23:09:39.264Z,28.40
2022-12-15T23:12:06.298Z,27.80
2022-12-15T23:14:51.488Z,27.87
2022-12-15T23:17:18.518Z,27.90
2022-12-15T23:19:46.301Z,27.10
2022-12-15T23:22:13.609Z,28.00
2022-12-15T23:24:40.733Z,26.30
2022-12-15T23:27:11.244Z,27.63
2022-12-15T23:29:38.024Z,26.67
2022-12-15T23:32:05.200Z,26.20
2022-12-15T23:34:31.971Z,26.90
2022-12-15T23:36:58.784Z,25.67
2022-12-15T23:39:25.731Z,25.20
2022-12-15T23:41:52.480Z,24.43
2022-12-15T23:44:19.304Z,26.20
2022-12-15T23:46:46.844Z,26.33
2022-12-15T23:49:13.763Z,25.57
2022-12-15T23:51:40.555Z,25.40
2022-12-15T23:54:07.375Z,25.90
2022-12-15T23:56:34.176Z,26.17
2022-12-15T23:59:01.009Z,27.53
